createdAt,value
2023-05-20T00:00:45.717Z,94865.00
2023-05-20T00:01:45.169Z,94863.00
2023-05-20T00:02:45.230Z,94863.00
2023-05-20T00:03:45.353Z,94865.00
2023-05-20T00:04:45.200Z,94867.00
2023-05-20T00:05:45.335Z,94867.00
2023-05-20T00:06:45.208Z,94869.00
2023-05-20T00:07:45.197Z,94871.00
2023-05-20T00:08:45.215Z,94869.00
2023-05-20T00:09:45.216Z,94871.00
2023-05-20T00:10:45.226Z,94869.00
2023-05-20T00:11:45.257Z,94867.00
2023-05-20T00:12:45.234Z,94865.00
2023-05-20T00:13:45.242Z,94863.00
2023-05-20T00:14:45.253Z,94859.00
2023-05-20T00:15:45.255Z,94859.00
2023-05-20T00:16:45.319Z,94859.00
2023-05-20T00:17:45.317Z,94857.00
2023-05-20T00:18:45.355Z,94853.00
2023-05-20T00:19:45.352Z,94853.00
2023-05-20T00:20:45.341Z,94851.00
2023-05-20T00:21:45.366Z,94853.00
2023-05-20T00:22:45.355Z,94848.00
2023-05-20T00:23:45.365Z,94846.00
2023-05-20T00:24:45.379Z,94842.00
2023-05-20T00:25:45.346Z,94838.00
2023-05-20T00:26:45.372Z,94836.00
2023-05-20T00:27:45.390Z,94834.00
2023-05-20T00:28:45.418Z,94834.00
2023-05-20T00:29:45.414Z,94830.00
2023-05-20T00:30:45.411Z,94828.00
2023-05-20T00:31:45.496Z,94828.00
2023-05-20T00:32:45.457Z,94820.00
2023-05-20T00:33:45.494Z,94820.00
2023-05-20T00:34:45.497Z,94820.00
2023-05-20T00:35:45.540Z,94818.00
2023-05-20T00:36:45.518Z,94822.00
2023-05-20T00:37:45.563Z,94820.00
2023-05-20T00:38:45.540Z,94822.00
2023-05-20T00:39:45.610Z,94820.00
2023-05-20T00:40:45.640Z,94816.00
2023-05-20T00:41:45.649Z,94816.00
2023-05-20T00:42:45.812Z,94814.00
2023-05-20T00:43:45.650Z,94814.00
2023-05-20T00:44:45.659Z,94816.00
2023-05-20T00:45:45.682Z,94818.00
2023-05-20T00:46:45.704Z,94816.00
2023-05-20T00:47:45.777Z,94816.00
2023-05-20T00:48:45.739Z,94814.00
2023-05-20T00:49:46.946Z,94812.00
2023-05-20T00:50:45.759Z,94812.00
2023-05-20T00:51:45.810Z,94810.00
2023-05-20T00:52:45.842Z,94808.00
2023-05-20T00:53:45.852Z,94810.00
2023-05-20T00:54:45.855Z,94814.00
2023-05-20T00:55:45.856Z,94816.00
2023-05-20T00:56:45.904Z,94818.00
2023-05-20T00:57:45.899Z,94816.00
2023-05-20T00:58:45.924Z,94822.00
2023-05-20T00:59:45.942Z,94820.00
2023-05-20T01:00:46.082Z,94822.00
2023-05-20T01:01:46.075Z,94824.00
2023-05-20T01:02:46.162Z,94826.00
2023-05-20T01:03:46.031Z,94824.00
2023-05-20T01:04:46.047Z,94818.00
2023-05-20T01:05:46.061Z,94820.00
2023-05-20T01:06:46.130Z,94820.00
2023-05-20T01:07:46.118Z,94824.00
2023-05-20T01:08:46.138Z,94828.00
2023-05-20T01:09:46.175Z,94826.00
2023-05-20T01:10:46.160Z,94822.00
2023-05-20T01:11:46.208Z,94822.00
2023-05-20T01:12:46.225Z,94822.00
2023-05-20T01:13:46.219Z,94824.00
2023-05-20T01:14:46.228Z,94824.00
2023-05-20T01:15:47.483Z,94824.00
2023-05-20T01:16:46.329Z,94822.00
2023-05-20T01:17:46.395Z,94820.00
2023-05-20T01:18:46.370Z,94822.00
2023-05-20T01:19:46.358Z,94822.00
2023-05-20T01:20:46.375Z,94824.00
2023-05-20T01:21:46.417Z,94824.00
2023-05-20T01:22:46.452Z,94824.00
2023-05-20T01:23:46.427Z,94826.00
2023-05-20T01:24:46.509Z,94830.00
2023-05-20T01:25:46.516Z,94828.00
2023-05-20T01:26:46.498Z,94826.00
2023-05-20T01:27:46.529Z,94824.00
2023-05-20T01:28:46.592Z,94824.00
2023-05-20T01:29:46.578Z,94824.00
2023-05-20T01:30:46.609Z,94820.00
2023-05-20T01:31:46.684Z,94816.00
2023-05-20T01:32:46.684Z,94816.00
2023-05-20T01:33:46.627Z,94814.00
2023-05-20T01:34:46.722Z,94812.00
2023-05-20T01:35:46.673Z,94810.00
2023-05-20T01:36:46.742Z,94812.00
2023-05-20T01:37:46.759Z,94812.00
2023-05-20T01:38:46.811Z,94812.00
2023-05-20T01:39:46.815Z,94814.00
2023-05-20T01:40:46.809Z,94816.00
2023-05-20T01:41:46.857Z,94818.00
2023-05-20T01:42:46.877Z,94814.00
2023-05-20T01:43:46.937Z,94814.00
2023-05-20T01:44:46.962Z,94812.00
2023-05-20T01:45:46.969Z,94820.00
2023-05-20T01:46:47.020Z,94826.00
2023-05-20T01:47:47.092Z,94834.00
2023-05-20T01:48:47.013Z,94836.00
2023-05-20T01:49:47.071Z,94838.00
2023-05-20T01:50:47.129Z,94842.00
2023-05-20T01:51:47.165Z,94844.00
2023-05-20T01:52:47.174Z,94846.00
2023-05-20T01:53:47.183Z,94842.00
2023-05-20T01:54:47.285Z,94842.00
2023-05-20T01:55:47.228Z,94844.00
2023-05-20T01:56:47.275Z,94846.00
2023-05-20T01:57:47.281Z,94844.00
2023-05-20T01:58:47.323Z,94840.00
2023-05-20T01:59:47.356Z,94840.00
2023-05-20T02:00:47.374Z,94840.00
2023-05-20T02:01:47.413Z,94842.00
2023-05-20T02:02:47.579Z,94842.00
2023-05-20T02:03:47.453Z,94842.00
2023-05-20T02:04:47.486Z,94840.00
2023-05-20T02:05:47.499Z,94840.00
2023-05-20T02:06:47.501Z,94836.00
2023-05-20T02:07:47.565Z,94836.00
2023-05-20T02:08:47.583Z,94834.00
2023-05-20T02:09:47.606Z,94830.00
2023-05-20T02:10:47.675Z,94832.00
2023-05-20T02:11:47.686Z,94830.00
2023-05-20T02:12:47.717Z,94830.00
2023-05-20T02:13:47.760Z,94830.00
2023-05-20T02:14:47.771Z,94830.00
2023-05-20T02:15:47.785Z,94830.00
2023-05-20T02:16:47.945Z,94832.00
2023-05-20T02:17:47.893Z,94828.00
2023-05-20T02:18:47.937Z,94828.00
2023-05-20T02:19:48.034Z,94828.00
2023-05-20T02:20:47.951Z,94830.00
2023-05-20T02:21:48.002Z,94830.00
2023-05-20T02:22:48.028Z,94828.00
2023-05-20T02:23:48.051Z,94824.00
2023-05-20T02:24:48.085Z,94822.00
2023-05-20T02:25:48.134Z,94824.00
2023-05-20T02:26:48.171Z,94824.00
2023-05-20T02:27:48.217Z,94824.00
2023-05-20T02:28:48.212Z,94826.00
2023-05-20T02:29:48.305Z,94822.00
2023-05-20T02:30:48.344Z,94824.00
2023-05-20T02:31:48.330Z,94824.00
2023-05-20T02:32:48.432Z,94822.00
2023-05-20T02:33:48.448Z,94822.00
2023-05-20T02:34:48.453Z,94820.00
2023-05-20T02:35:48.488Z,94822.00
2023-05-20T02:36:48.525Z,94820.00
2023-05-20T02:37:48.553Z,94818.00
2023-05-20T02:38:48.617Z,94816.00
2023-05-20T02:39:48.653Z,94814.00
2023-05-20T02:40:48.658Z,94814.00
2023-05-20T02:41:48.738Z,94816.00
2023-05-20T02:42:48.734Z,94818.00
2023-05-20T02:43:48.808Z,94820.00
2023-05-20T02:44:48.787Z,94820.00
2023-05-20T02:45:48.885Z,94816.00
2023-05-20T02:46:48.888Z,94812.00
2023-05-20T02:47:48.967Z,94814.00
2023-05-20T02:48:48.936Z,94810.00
2023-05-20T02:49:48.944Z,94810.00
2023-05-20T02:50:48.997Z,94810.00
2023-05-20T02:51:49.092Z,94812.00
2023-05-20T02:52:49.051Z,94812.00
2023-05-20T02:53:49.126Z,94812.00
2023-05-20T02:54:49.163Z,94812.00
2023-05-20T02:55:49.174Z,94810.00
2023-05-20T02:56:49.211Z,94808.00
2023-05-20T02:57:49.264Z,94802.00
2023-05-20T02:58:49.316Z,94800.00
2023-05-20T02:59:49.376Z,94796.00
2023-05-20T03:00:49.371Z,94798.00
2023-05-20T03:01:49.502Z,94802.00
2023-05-20T03:02:49.501Z,94804.00
2023-05-20T03:03:49.544Z,94808.00
2023-05-20T03:04:49.626Z,94806.00
2023-05-20T03:05:49.567Z,94806.00
2023-05-20T03:06:49.621Z,94804.00
2023-05-20T03:07:49.662Z,94804.00
2023-05-20T03:08:49.664Z,94808.00
2023-05-20T03:09:49.739Z,94810.00
2023-05-20T03:10:49.788Z,94808.00
2023-05-20T03:11:49.788Z,94812.00
2023-05-20T03:12:49.869Z,94810.00
2023-05-20T03:13:49.908Z,94810.00
2023-05-20T03:14:49.907Z,94812.00
2023-05-20T03:15:49.952Z,94812.00
2023-05-20T03:16:50.022Z,94812.00
2023-05-20T03:17:50.059Z,94812.00
2023-05-20T03:18:50.153Z,94810.00
2023-05-20T03:19:50.162Z,94810.00
2023-05-20T03:20:50.179Z,94812.00
2023-05-20T03:21:50.224Z,94808.00
2023-05-20T03:22:50.302Z,94810.00
2023-05-20T03:23:50.311Z,94810.00
2023-05-20T03:24:50.349Z,94810.00
2023-05-20T03:25:50.408Z,94812.00
2023-05-20T03:26:50.430Z,94810.00
2023-05-20T03:27:50.511Z,94810.00
2023-05-20T03:28:50.553Z,94808.00
2023-05-20T03:29:50.591Z,94808.00
2023-05-20T03:30:50.663Z,94806.00
2023-05-20T03:31:50.831Z,94802.00
2023-05-20T03:32:50.729Z,94800.00
2023-05-20T03:33:50.755Z,94798.00
2023-05-20T03:34:50.832Z,94794.00
2023-05-20T03:35:50.882Z,94796.00
2023-05-20T03:36:50.895Z,94794.00
2023-05-20T03:37:50.960Z,94794.00
2023-05-20T03:38:50.965Z,94793.00
2023-05-20T03:39:51.007Z,94793.00
2023-05-20T03:40:51.033Z,94796.00
2023-05-20T03:41:51.084Z,94802.00
2023-05-20T03:42:51.155Z,94804.00
2023-05-20T03:43:51.201Z,94802.00
2023-05-20T03:44:51.201Z,94800.00
2023-05-20T03:45:51.330Z,94800.00
2023-05-20T03:46:51.361Z,94800.00
2023-05-20T03:47:51.398Z,94802.00
2023-05-20T03:48:51.442Z,94800.00
2023-05-20T03:49:51.452Z,94798.00
2023-05-20T03:50:51.509Z,94798.00
2023-05-20T03:51:51.521Z,94800.00
2023-05-20T03:52:51.610Z,94796.00
2023-05-20T03:53:51.601Z,94794.00
2023-05-20T03:54:51.685Z,94794.00
2023-05-20T03:55:51.725Z,94796.00
2023-05-20T03:56:51.815Z,94802.00
2023-05-20T03:57:51.814Z,94800.00
2023-05-20T03:58:51.851Z,94798.00
2023-05-20T03:59:51.921Z,94798.00
2023-05-20T04:00:51.988Z,94794.00
2023-05-20T04:01:52.031Z,94794.00
2023-05-20T04:02:52.111Z,94796.00
2023-05-20T04:03:52.181Z,94800.00
2023-05-20T04:04:52.164Z,94798.00
2023-05-20T04:05:52.186Z,94794.00
2023-05-20T04:06:52.204Z,94794.00
2023-05-20T04:07:52.291Z,94796.00
2023-05-20T04:08:52.323Z,94796.00
2023-05-20T04:09:52.332Z,94796.00
2023-05-20T04:10:52.403Z,94796.00
2023-05-20T04:11:52.453Z,94794.00
2023-05-20T04:12:52.522Z,94798.00
2023-05-20T04:13:52.529Z,94800.00
2023-05-20T04:14:52.575Z,94800.00
2023-05-20T04:15:52.652Z,94798.00
2023-05-20T04:16:52.722Z,94796.00
2023-05-20T04:17:52.764Z,94800.00
2023-05-20T04:18:52.795Z,94800.00
2023-05-20T04:19:52.773Z,94804.00
2023-05-20T04:20:52.814Z,94802.00
2023-05-20T04:21:52.889Z,94798.00
2023-05-20T04:22:52.941Z,94798.00
2023-05-20T04:23:53.002Z,94796.00
2023-05-20T04:24:53.029Z,94802.00
2023-05-20T04:25:53.186Z,94806.00
2023-05-20T04:26:53.097Z,94806.00
2023-05-20T04:27:53.176Z,94806.00
2023-05-20T04:28:53.213Z,94804.00
2023-05-20T04:29:53.252Z,94802.00
2023-05-20T04:30:53.268Z,94802.00
2023-05-20T04:31:53.383Z,94802.00
2023-05-20T04:32:53.446Z,94804.00
2023-05-20T04:33:53.424Z,94806.00
2023-05-20T04:34:53.463Z,94810.00
2023-05-20T04:35:53.469Z,94806.00
2023-05-20T04:36:53.551Z,94808.00
2023-05-20T04:37:53.554Z,94808.00
2023-05-20T04:38:53.588Z,94808.00
2023-05-20T04:39:53.634Z,94806.00
2023-05-20T04:40:53.693Z,94808.00
2023-05-20T04:41:53.854Z,94806.00
2023-05-20T04:42:53.790Z,94806.00
2023-05-20T04:43:53.812Z,94808.00
2023-05-20T04:44:53.828Z,94808.00
2023-05-20T04:45:53.930Z,94810.00
2023-05-20T04:46:53.947Z,94812.00
2023-05-20T04:47:54.016Z,94814.00
2023-05-20T04:48:54.050Z,94814.00
2023-05-20T04:49:54.096Z,94818.00
2023-05-20T04:50:54.074Z,94816.00
2023-05-20T04:51:54.167Z,94814.00
2023-05-20T04:52:54.164Z,94810.00
2023-05-20T04:53:54.250Z,94808.00
2023-05-20T04:54:54.244Z,94808.00
2023-05-20T04:55:54.326Z,94810.00
2023-05-20T04:56:54.362Z,94810.00
2023-05-20T04:57:54.409Z,94810.00
2023-05-20T04:58:54.425Z,94812.00
2023-05-20T04:59:54.497Z,94812.00
2023-05-20T05:00:54.493Z,94806.00
2023-05-20T05:01:54.641Z,94806.00
2023-05-20T05:02:54.709Z,94808.00
2023-05-20T05:03:54.612Z,94804.00
2023-05-20T05:04:54.675Z,94810.00
2023-05-20T05:05:54.733Z,94806.00
2023-05-20T05:06:54.699Z,94806.00
2023-05-20T05:07:54.786Z,94800.00
2023-05-20T05:08:54.809Z,94798.00
2023-05-20T05:09:54.856Z,94798.00
2023-05-20T05:10:54.876Z,94802.00
2023-05-20T05:11:54.909Z,94802.00
2023-05-20T05:12:54.992Z,94796.00
2023-05-20T05:13:54.950Z,94800.00
2023-05-20T05:14:55.043Z,94798.00
2023-05-20T05:15:55.108Z,94796.00
2023-05-20T05:16:55.784Z,94796.00
2023-05-20T05:17:55.200Z,94794.00
2023-05-20T05:18:55.238Z,94794.00
2023-05-20T05:19:55.232Z,94796.00
2023-05-20T05:20:55.292Z,94798.00
2023-05-20T05:21:55.364Z,94798.00
2023-05-20T05:22:55.368Z,94798.00
2023-05-20T05:23:57.548Z,94794.00
2023-05-20T05:24:55.381Z,94793.00
2023-05-20T05:25:55.373Z,94796.00
2023-05-20T05:26:55.328Z,94798.00
2023-05-20T05:27:56.221Z,94794.00
2023-05-20T05:28:55.343Z,94791.00
2023-05-20T05:29:55.297Z,94794.00
2023-05-20T05:30:55.310Z,94789.00
2023-05-20T05:31:55.339Z,94791.00
2023-05-20T05:32:55.414Z,94796.00
2023-05-20T05:33:55.264Z,94796.00
2023-05-20T05:34:55.280Z,94796.00
2023-05-20T05:35:55.285Z,94793.00
2023-05-20T05:36:55.301Z,94791.00
2023-05-20T05:37:55.308Z,94791.00
2023-05-20T05:38:55.253Z,94794.00
2023-05-20T05:39:55.261Z,94796.00
2023-05-20T05:40:55.282Z,94798.00
2023-05-20T05:41:55.237Z,94796.00
2023-05-20T05:42:55.223Z,94800.00
2023-05-20T05:43:55.240Z,94798.00
2023-05-20T05:44:55.197Z,94800.00
2023-05-20T05:45:55.197Z,94798.00
2023-05-20T05:46:55.254Z,94798.00
2023-05-20T05:47:55.268Z,94802.00
2023-05-20T05:48:55.167Z,94800.00
2023-05-20T05:49:55.174Z,94800.00
2023-05-20T05:50:55.190Z,94802.00
2023-05-20T05:51:55.185Z,94800.00
2023-05-20T05:52:55.151Z,94798.00
2023-05-20T05:53:55.169Z,94798.00
2023-05-20T05:54:55.164Z,94796.00
2023-05-20T05:55:55.128Z,94802.00
2023-05-20T05:56:55.120Z,94802.00
2023-05-20T05:57:55.123Z,94804.00
2023-05-20T05:58:55.129Z,94804.00
2023-05-20T05:59:55.139Z,94804.00
2023-05-20T06:00:55.155Z,94800.00
2023-05-20T06:01:55.162Z,94806.00
2023-05-20T06:02:55.190Z,94808.00
2023-05-20T06:03:55.165Z,94808.00
2023-05-20T06:04:55.145Z,94808.00
2023-05-20T06:05:55.072Z,94806.00
2023-05-20T06:06:55.043Z,94810.00
2023-05-20T06:07:55.044Z,94808.00
2023-05-20T06:08:55.059Z,94806.00
2023-05-20T06:09:55.031Z,94802.00
2023-05-20T06:10:55.066Z,94802.00
2023-05-20T06:11:55.089Z,94806.00
2023-05-20T06:12:55.024Z,94810.00
2023-05-20T06:13:55.029Z,94814.00
2023-05-20T06:14:55.035Z,94812.00
2023-05-20T06:15:55.007Z,94812.00
2023-05-20T06:16:55.030Z,94808.00
2023-05-20T06:17:55.060Z,94804.00
2023-05-20T06:18:55.000Z,94802.00
2023-05-20T06:19:55.032Z,94800.00
2023-05-20T06:20:55.078Z,94800.00
2023-05-20T06:21:55.083Z,94800.00
2023-05-20T06:22:55.090Z,94800.00
2023-05-20T06:23:55.164Z,94800.00
2023-05-20T06:24:55.171Z,94800.00
2023-05-20T06:25:55.168Z,94808.00
2023-05-20T06:26:55.181Z,94804.00
2023-05-20T06:27:55.233Z,94806.00
2023-05-20T06:28:55.392Z,94810.00
2023-05-20T06:29:55.306Z,94808.00
2023-05-20T06:30:55.352Z,94808.00
2023-05-20T06:31:55.331Z,94808.00
2023-05-20T06:32:55.455Z,94806.00
2023-05-20T06:33:55.377Z,94806.00
2023-05-20T06:34:55.378Z,94804.00
2023-05-20T06:35:55.451Z,94804.00
2023-05-20T06:36:55.456Z,94802.00
2023-05-20T06:37:55.542Z,94798.00
2023-05-20T06:38:55.459Z,94796.00
2023-05-20T06:39:55.521Z,94791.00
2023-05-20T06:40:55.519Z,94793.00
2023-05-20T06:41:55.536Z,94791.00
2023-05-20T06:42:55.597Z,94789.00
2023-05-20T06:43:55.612Z,94791.00
2023-05-20T06:44:55.608Z,94793.00
2023-05-20T06:45:55.660Z,94791.00
2023-05-20T06:46:55.731Z,94791.00
2023-05-20T06:47:55.751Z,94789.00
2023-05-20T06:48:55.660Z,94787.00
2023-05-20T06:49:55.684Z,94783.00
2023-05-20T06:50:55.764Z,94781.00
2023-05-20T06:51:55.760Z,94779.00
2023-05-20T06:52:55.766Z,94779.00
2023-05-20T06:53:55.771Z,94781.00
2023-05-20T06:54:55.821Z,94783.00
2023-05-20T06:55:55.806Z,94781.00
2023-05-20T06:56:55.795Z,94777.00
2023-05-20T06:57:55.804Z,94775.00
2023-05-20T06:58:55.824Z,94767.00
2023-05-20T06:59:55.813Z,94765.00
2023-05-20T07:00:55.816Z,94759.00
2023-05-20T07:01:55.899Z,94763.00
2023-05-20T07:02:55.855Z,94763.00
2023-05-20T07:03:55.954Z,94761.00
2023-05-20T07:04:55.845Z,94761.00
2023-05-20T07:05:55.854Z,94763.00
2023-05-20T07:06:55.854Z,94757.00
2023-05-20T07:07:55.863Z,94757.00
2023-05-20T07:08:55.877Z,94759.00
2023-05-20T07:09:55.900Z,94757.00
2023-05-20T07:10:55.970Z,94755.00
2023-05-20T07:11:55.887Z,94753.00
2023-05-20T07:12:56.138Z,94753.00
2023-05-20T07:13:55.872Z,94749.00
2023-05-20T07:14:55.862Z,94749.00
2023-05-20T07:15:55.951Z,94747.00
2023-05-20T07:16:55.846Z,94746.00
2023-05-20T07:17:55.942Z,94746.00
2023-05-20T07:18:55.927Z,94746.00
2023-05-20T07:19:55.893Z,94744.00
2023-05-20T07:20:55.860Z,94742.00
2023-05-20T07:21:55.857Z,94742.00
2023-05-20T07:22:55.867Z,94740.00
2023-05-20T07:23:55.863Z,94736.00
2023-05-20T07:24:55.871Z,94734.00
2023-05-20T07:25:55.882Z,94734.00
2023-05-20T07:26:55.836Z,94732.00
2023-05-20T07:27:55.848Z,94730.00
2023-05-20T07:28:55.856Z,94728.00
2023-05-20T07:29:55.870Z,94730.00
2023-05-20T07:30:56.379Z,94728.00
2023-05-20T07:31:55.874Z,94726.00
2023-05-20T07:32:55.885Z,94724.00
2023-05-20T07:33:55.841Z,94720.00
2023-05-20T07:34:55.959Z,94720.00
2023-05-20T07:35:55.864Z,94716.00
2023-05-20T07:36:55.856Z,94716.00
2023-05-20T07:37:55.816Z,94716.00
2023-05-20T07:39:03.195Z,94714.00
2023-05-20T07:39:56.853Z,94714.00
2023-05-20T07:40:55.840Z,94714.00
2023-05-20T07:41:55.843Z,94710.00
2023-05-20T07:42:55.927Z,94714.00
2023-05-20T07:43:55.805Z,94712.00
2023-05-20T07:44:55.805Z,94708.00
2023-05-20T07:45:55.837Z,94706.00
2023-05-20T07:46:55.753Z,94708.00
2023-05-20T07:47:55.769Z,94708.00
2023-05-20T07:48:55.846Z,94714.00
2023-05-20T07:49:55.740Z,94714.00
2023-05-20T07:50:55.802Z,94704.00
2023-05-20T07:51:55.764Z,94710.00
2023-05-20T07:52:56.921Z,94708.00
2023-05-20T07:53:55.717Z,94708.00
2023-05-20T07:54:55.723Z,94706.00
2023-05-20T07:55:55.795Z,94704.00
2023-05-20T07:56:55.801Z,94704.00
2023-05-20T07:57:55.858Z,94702.00
2023-05-20T07:58:55.862Z,94704.00
2023-05-20T07:59:55.937Z,94700.00
2023-05-20T08:00:56.028Z,94699.00
2023-05-20T08:01:56.125Z,94699.00
2023-05-20T08:02:56.298Z,94699.00
2023-05-20T08:03:56.315Z,94697.00
2023-05-20T08:04:56.267Z,94697.00
2023-05-20T08:05:56.328Z,94697.00
2023-05-20T08:06:56.384Z,94697.00
2023-05-20T08:07:56.438Z,94697.00
2023-05-20T08:08:56.513Z,94693.00
2023-05-20T08:09:56.906Z,94693.00
2023-05-20T08:10:56.606Z,94691.00
2023-05-20T08:11:56.674Z,94691.00
2023-05-20T08:12:56.733Z,94689.00
2023-05-20T08:13:56.832Z,94693.00
2023-05-20T08:14:56.888Z,94689.00
2023-05-20T08:15:56.901Z,94691.00
2023-05-20T08:16:57.080Z,94689.00
2023-05-20T08:17:57.038Z,94687.00
2023-05-20T08:18:57.153Z,94683.00
2023-05-20T08:19:57.190Z,94679.00
2023-05-20T08:20:57.208Z,94679.00
2023-05-20T08:21:57.306Z,94685.00
2023-05-20T08:22:57.351Z,94681.00
2023-05-20T08:23:57.411Z,94681.00
2023-05-20T08:24:57.465Z,94677.00
2023-05-20T08:25:57.529Z,94679.00
2023-05-20T08:26:57.581Z,94679.00
2023-05-20T08:27:57.648Z,94679.00
2023-05-20T08:28:57.714Z,94677.00
2023-05-20T08:30:00.512Z,94679.00
2023-05-20T08:30:57.793Z,94677.00
2023-05-20T08:31:57.775Z,94677.00
2023-05-20T08:32:57.787Z,94675.00
2023-05-20T08:33:57.734Z,94675.00
2023-05-20T08:34:57.739Z,94673.00
2023-05-20T08:35:57.696Z,94673.00
2023-05-20T08:36:57.703Z,94673.00
2023-05-20T08:37:57.719Z,94671.00
2023-05-20T08:38:57.712Z,94669.00
2023-05-20T08:39:57.727Z,94669.00
2023-05-20T08:40:57.698Z,94667.00
2023-05-20T08:41:57.696Z,94667.00
2023-05-20T08:42:57.727Z,94663.00
2023-05-20T08:43:57.643Z,94665.00
2023-05-20T08:44:57.654Z,94665.00
2023-05-20T08:45:57.691Z,94665.00
2023-05-20T08:46:57.793Z,94661.00
2023-05-20T08:47:57.696Z,94655.00
2023-05-20T08:48:57.632Z,94657.00
2023-05-20T08:49:57.616Z,94649.00
2023-05-20T08:50:57.599Z,94649.00
2023-05-20T08:51:57.598Z,94645.00
2023-05-20T08:52:57.612Z,94647.00
2023-05-20T08:53:57.594Z,94645.00
2023-05-20T08:54:57.633Z,94651.00
2023-05-20T08:56:00.120Z,94647.00
2023-05-20T08:56:57.568Z,94649.00
2023-05-20T08:57:57.594Z,94645.00
2023-05-20T08:58:57.619Z,94644.00
2023-05-20T08:59:57.565Z,94645.00
2023-05-20T09:00:57.535Z,94644.00
2023-05-20T09:01:57.563Z,94644.00
2023-05-20T09:03:00.742Z,94645.00
2023-05-20T09:03:57.585Z,94644.00
2023-05-20T09:04:57.561Z,94647.00
2023-05-20T09:05:57.512Z,94645.00
2023-05-20T09:06:57.593Z,94642.00
2023-05-20T09:07:57.513Z,94644.00
2023-05-20T09:08:57.517Z,94645.00
2023-05-20T09:09:57.478Z,94645.00
2023-05-20T09:10:57.505Z,94645.00
2023-05-20T09:11:57.465Z,94644.00
2023-05-20T09:12:57.483Z,94645.00
2023-05-20T09:13:57.462Z,94645.00
2023-05-20T09:14:57.453Z,94647.00
2023-05-20T09:15:57.477Z,94647.00
2023-05-20T09:16:57.435Z,94644.00
2023-05-20T09:17:57.452Z,94644.00
2023-05-20T09:18:57.587Z,94644.00
2023-05-20T09:19:57.437Z,94645.00
2023-05-20T09:20:57.402Z,94644.00
2023-05-20T09:21:57.407Z,94642.00
2023-05-20T09:22:57.404Z,94642.00
2023-05-20T09:23:57.362Z,94642.00
2023-05-20T09:24:57.361Z,94644.00
2023-05-20T09:25:57.374Z,94644.00
2023-05-20T09:26:57.390Z,94644.00
2023-05-20T09:27:57.336Z,94638.00
2023-05-20T09:28:57.363Z,94630.00
2023-05-20T09:29:57.356Z,94624.00
2023-05-20T09:30:57.359Z,94620.00
2023-05-20T09:31:57.366Z,94616.00
2023-05-20T09:32:57.328Z,94620.00
2023-05-20T09:33:57.379Z,94620.00
2023-05-20T09:34:57.283Z,94620.00
2023-05-20T09:35:57.292Z,94616.00
2023-05-20T09:36:57.299Z,94618.00
2023-05-20T09:37:57.341Z,94616.00
2023-05-20T09:38:57.269Z,94616.00
2023-05-20T09:39:57.232Z,94612.00
2023-05-20T09:40:57.284Z,94616.00
2023-05-20T09:41:57.261Z,94610.00
2023-05-20T09:42:57.249Z,94610.00
2023-05-20T09:43:57.230Z,94612.00
2023-05-20T09:44:57.244Z,94612.00
2023-05-20T09:45:57.321Z,94614.00
2023-05-20T09:46:57.263Z,94612.00
2023-05-20T09:47:57.265Z,94614.00
2023-05-20T09:48:57.226Z,94612.00
2023-05-20T09:49:57.182Z,94610.00
2023-05-20T09:50:57.215Z,94608.00
2023-05-20T09:51:57.267Z,94604.00
2023-05-20T09:52:57.300Z,94600.00
2023-05-20T09:53:57.289Z,94596.00
2023-05-20T09:54:57.320Z,94596.00
2023-05-20T09:55:57.382Z,94592.00
2023-05-20T09:56:57.364Z,94592.00
2023-05-20T09:57:57.358Z,94587.00
2023-05-20T09:58:57.412Z,94589.00
2023-05-20T09:59:57.456Z,94583.00
2023-05-20T10:00:57.532Z,94583.00
2023-05-20T10:01:57.611Z,94577.00
2023-05-20T10:02:57.599Z,94577.00
2023-05-20T10:03:57.634Z,94575.00
2023-05-20T10:04:57.896Z,94571.00
2023-05-20T10:05:57.565Z,94567.00
2023-05-20T10:06:57.607Z,94563.00
2023-05-20T10:07:57.619Z,94561.00
2023-05-20T10:08:57.702Z,94561.00
2023-05-20T10:09:57.688Z,94559.00
2023-05-20T10:10:57.687Z,94557.00
2023-05-20T10:11:57.740Z,94557.00
2023-05-20T10:12:57.713Z,94559.00
2023-05-20T10:13:57.717Z,94559.00
2023-05-20T10:14:57.777Z,94555.00
2023-05-20T10:15:57.799Z,94553.00
2023-05-20T10:16:57.776Z,94552.00
2023-05-20T10:17:57.927Z,94550.00
2023-05-20T10:18:57.878Z,94552.00
2023-05-20T10:19:57.861Z,94555.00
2023-05-20T10:20:57.830Z,94555.00
2023-05-20T10:21:57.925Z,94557.00
2023-05-20T10:22:57.874Z,94559.00
2023-05-20T10:23:59.970Z,94561.00
2023-05-20T10:24:57.893Z,94561.00
2023-05-20T10:25:57.909Z,94559.00
2023-05-20T10:26:57.908Z,94561.00
2023-05-20T10:27:57.865Z,94557.00
2023-05-20T10:28:57.869Z,94557.00
2023-05-20T10:29:58.045Z,94557.00
2023-05-20T10:30:57.876Z,94553.00
2023-05-20T10:31:57.896Z,94553.00
2023-05-20T10:32:57.896Z,94553.00
2023-05-20T10:33:57.853Z,94555.00
2023-05-20T10:34:57.798Z,94555.00
2023-05-20T10:35:57.806Z,94559.00
2023-05-20T10:36:57.801Z,94555.00
2023-05-20T10:37:57.785Z,94552.00
2023-05-20T10:38:57.791Z,94550.00
2023-05-20T10:39:57.827Z,94546.00
2023-05-20T10:40:57.774Z,94546.00
2023-05-20T10:41:57.805Z,94538.00
2023-05-20T10:42:58.353Z,94542.00
2023-05-20T10:43:57.764Z,94540.00
2023-05-20T10:44:57.778Z,94540.00
2023-05-20T10:45:57.796Z,94540.00
2023-05-20T10:47:20.563Z,94540.00
2023-05-20T10:47:59.074Z,94538.00
2023-05-20T10:48:57.869Z,94536.00
2023-05-20T10:49:57.732Z,94536.00
2023-05-20T10:50:57.748Z,94534.00
2023-05-20T10:51:57.703Z,94534.00
2023-05-20T10:52:57.681Z,94538.00
2023-05-20T10:53:57.728Z,94536.00
2023-05-20T10:54:57.725Z,94538.00
2023-05-20T10:55:57.673Z,94538.00
2023-05-20T10:56:57.724Z,94536.00
2023-05-20T10:57:57.659Z,94532.00
2023-05-20T10:58:57.693Z,94532.00
2023-05-20T10:59:57.620Z,94530.00
2023-05-20T11:00:57.687Z,94528.00
2023-05-20T11:01:57.626Z,94530.00
2023-05-20T11:02:57.767Z,94530.00
2023-05-20T11:03:57.807Z,94532.00
2023-05-20T11:04:57.616Z,94532.00
2023-05-20T11:05:57.656Z,94530.00
2023-05-20T11:06:57.596Z,94528.00
2023-05-20T11:07:57.575Z,94524.00
2023-05-20T11:08:57.633Z,94524.00
2023-05-20T11:09:57.645Z,94528.00
2023-05-20T11:10:57.592Z,94530.00
2023-05-20T11:11:57.560Z,94530.00
2023-05-20T11:12:57.580Z,94532.00
2023-05-20T11:13:57.557Z,94534.00
2023-05-20T11:14:57.571Z,94534.00
2023-05-20T11:15:57.570Z,94530.00
2023-05-20T11:16:57.653Z,94528.00
2023-05-20T11:17:57.544Z,94526.00
2023-05-20T11:18:57.564Z,94524.00
2023-05-20T11:19:57.510Z,94526.00
2023-05-20T11:20:57.563Z,94532.00
2023-05-20T11:21:57.505Z,94532.00
2023-05-20T11:22:57.512Z,94530.00
2023-05-20T11:23:57.519Z,94530.00
2023-05-20T11:24:58.364Z,94534.00
2023-05-20T11:25:57.476Z,94536.00
2023-05-20T11:26:57.627Z,94534.00
2023-05-20T11:27:57.469Z,94534.00
2023-05-20T11:28:58.693Z,94536.00
2023-05-20T11:29:57.472Z,94536.00
2023-05-20T11:30:57.421Z,94530.00
2023-05-20T11:31:57.593Z,94532.00
2023-05-20T11:32:57.463Z,94530.00
2023-05-20T11:33:57.421Z,94532.00
2023-05-20T11:34:57.447Z,94526.00
2023-05-20T11:35:57.408Z,94524.00
2023-05-20T11:36:57.479Z,94524.00
2023-05-20T11:37:57.412Z,94532.00
2023-05-20T11:38:57.387Z,94532.00
2023-05-20T11:39:57.376Z,94532.00
2023-05-20T11:40:57.648Z,94530.00
2023-05-20T11:41:57.397Z,94530.00
2023-05-20T11:42:57.386Z,94532.00
2023-05-20T11:43:57.363Z,94532.00
2023-05-20T11:44:58.456Z,94530.00